createdAt,value
2018-07-17T00:01:55.811Z,6.60
2018-07-17T00:04:24.537Z,6.55
2018-07-17T00:06:52.913Z,6.53
2018-07-17T00:09:21.682Z,6.20
2018-07-17T00:11:50.311Z,6.22
2018-07-17T00:14:19.099Z,6.55
2018-07-17T00:16:48.495Z,6.25
2018-07-17T00:19:17.246Z,6.90
2018-07-17T00:21:46.005Z,6.70
2018-07-17T00:27:46.244Z,6.20
2018-07-17T00:30:15.043Z,6.80
2018-07-17T00:32:43.719Z,6.50
2018-07-17T00:35:12.581Z,6.47
2018-07-17T00:37:41.363Z,6.10
2018-07-17T00:40:10.037Z,6.20
2018-07-17T00:42:38.772Z,6.35
2018-07-17T00:45:07.430Z,6.30
2018-07-17T00:47:36.118Z,6.10
2018-07-17T00:50:04.813Z,6.10
2018-07-17T00:52:33.686Z,6.55
2018-07-17T00:55:02.414Z,6.47
2018-07-17T00:57:31.196Z,6.33
2018-07-17T01:00:00.096Z,6.42
2018-07-17T01:02:33.974Z,6.60
2018-07-17T01:05:07.961Z,6.53
2018-07-17T01:07:42.149Z,7.10
2018-07-17T01:10:16.459Z,7.22
2018-07-17T01:12:44.284Z,7.17
2018-07-17T01:15:22.944Z,7.40
2018-07-17T01:17:51.631Z,6.75
2018-07-17T01:20:20.407Z,7.37
2018-07-17T01:22:49.311Z,7.75
2018-07-17T01:25:18.086Z,7.80
2018-07-17T01:27:46.624Z,7.97
2018-07-17T01:30:15.779Z,7.85
2018-07-17T01:32:46.907Z,8.03
2018-07-17T01:35:15.601Z,7.67
2018-07-17T01:37:44.963Z,7.80
2018-07-17T01:40:13.661Z,7.33
2018-07-17T01:42:42.407Z,6.85
2018-07-17T01:45:11.168Z,6.72
2018-07-17T01:47:39.859Z,6.42
2018-07-17T01:50:08.674Z,6.42
2018-07-17T01:52:37.291Z,6.33
2018-07-17T01:55:05.980Z,7.45
2018-07-17T01:57:34.671Z,8.03
2018-07-17T02:00:03.410Z,8.20
2018-07-17T02:02:32.216Z,8.67
2018-07-17T02:05:00.874Z,8.33
2018-07-17T02:07:29.487Z,9.03
2018-07-17T02:09:58.242Z,8.83
2018-07-17T02:12:27.444Z,8.73
2018-07-17T02:14:56.163Z,8.77
2018-07-17T02:17:24.882Z,8.80
2018-07-17T02:19:53.585Z,9.03
2018-07-17T02:22:22.388Z,8.88
2018-07-17T02:24:51.038Z,9.73
2018-07-17T02:27:19.752Z,10.23
2018-07-17T02:29:48.304Z,9.83
2018-07-17T02:32:17.444Z,9.63
2018-07-17T02:34:46.190Z,9.60
2018-07-17T02:37:14.908Z,10.32
2018-07-17T02:39:43.746Z,10.20
2018-07-17T02:42:12.518Z,10.60
2018-07-17T02:44:41.276Z,10.48
2018-07-17T02:47:09.910Z,10.35
2018-07-17T02:49:38.874Z,10.50
2018-07-17T02:52:07.941Z,9.95
2018-07-17T02:54:37.839Z,9.60
2018-07-17T02:57:06.647Z,10.28
2018-07-17T02:59:35.410Z,10.60
2018-07-17T03:02:04.110Z,10.65
2018-07-17T03:04:33.003Z,9.87
2018-07-17T03:07:02.668Z,11.48
2018-07-17T03:09:31.294Z,12.10
2018-07-17T03:12:00.098Z,12.60
2018-07-17T03:14:28.866Z,12.37
2018-07-17T03:16:57.543Z,12.88
2018-07-17T03:19:26.379Z,13.53
2018-07-17T03:21:55.007Z,13.68
2018-07-17T03:24:23.698Z,12.93
2018-07-17T03:26:52.441Z,13.10
2018-07-17T03:29:21.214Z,12.37
2018-07-17T03:31:49.949Z,12.27
2018-07-17T03:34:18.661Z,11.95
2018-07-17T03:36:47.290Z,11.75
2018-07-17T03:39:15.947Z,11.97
2018-07-17T03:41:44.763Z,11.97
2018-07-17T03:44:13.555Z,11.12
2018-07-17T03:46:42.231Z,10.93
2018-07-17T03:49:11.482Z,10.32
2018-07-17T03:51:40.363Z,10.48
2018-07-17T03:54:09.038Z,10.20
2018-07-17T03:56:37.688Z,9.70
2018-07-17T03:59:06.312Z,9.53
2018-07-17T04:01:35.066Z,8.98
2018-07-17T04:04:04.604Z,9.10
2018-07-17T04:06:33.334Z,8.83
2018-07-17T04:09:02.106Z,8.30
2018-07-17T04:11:30.870Z,8.43
2018-07-17T04:14:05.515Z,8.33
2018-07-17T04:16:43.217Z,8.40
2018-07-17T04:19:12.251Z,9.08
2018-07-17T04:21:40.858Z,9.60
2018-07-17T04:24:09.547Z,10.10
2018-07-17T04:26:38.666Z,9.78
2018-07-17T04:29:07.358Z,9.05
2018-07-17T04:31:36.051Z,9.30
2018-07-17T04:34:04.823Z,8.85
2018-07-17T04:36:33.454Z,8.85
2018-07-17T04:39:02.181Z,8.40
2018-07-17T04:41:30.894Z,8.48
2018-07-17T04:43:59.856Z,8.10
2018-07-17T04:46:28.545Z,7.87
2018-07-17T04:48:58.084Z,7.90
2018-07-17T04:51:26.675Z,8.08
2018-07-17T04:53:56.544Z,7.90
2018-07-17T04:56:25.150Z,7.58
2018-07-17T04:58:53.894Z,8.60
2018-07-17T05:01:24.509Z,8.15
2018-07-17T05:03:53.256Z,7.73
2018-07-17T05:06:22.021Z,7.78
2018-07-17T05:08:50.792Z,8.30
2018-07-17T05:11:25.385Z,8.28
2018-07-17T05:13:59.949Z,9.03
2018-07-17T05:16:33.719Z,8.15
2018-07-17T05:19:02.610Z,8.20
2018-07-17T05:21:31.211Z,7.83
2018-07-17T05:23:59.992Z,7.37
2018-07-17T05:26:28.654Z,7.17
2018-07-17T05:28:57.286Z,7.17
2018-07-17T05:31:25.886Z,7.55
2018-07-17T05:33:54.480Z,7.62
2018-07-17T05:36:23.148Z,7.65
2018-07-17T05:38:51.875Z,8.00
2018-07-17T05:41:20.579Z,7.55
2018-07-17T05:43:49.257Z,7.47
2018-07-17T05:46:18.948Z,7.65
2018-07-17T05:48:47.578Z,7.75
2018-07-17T05:51:16.492Z,7.92
2018-07-17T05:53:45.487Z,7.67
2018-07-17T05:56:14.080Z,8.00
2018-07-17T05:58:42.854Z,8.65
2018-07-17T06:01:11.770Z,8.40
2018-07-17T06:03:40.563Z,8.93
2018-07-17T06:06:09.371Z,9.43
2018-07-17T06:08:38.188Z,9.23
2018-07-17T06:11:07.299Z,9.43
2018-07-17T06:13:36.011Z,9.63
2018-07-17T06:16:04.911Z,9.10
2018-07-17T06:18:34.170Z,9.33
2018-07-17T06:21:03.412Z,10.18
2018-07-17T06:23:32.920Z,10.50
2018-07-17T06:26:01.674Z,10.13
2018-07-17T06:28:30.430Z,10.85
2018-07-17T06:30:59.275Z,10.70
2018-07-17T06:33:29.488Z,10.38
2018-07-17T06:35:58.300Z,10.55
2018-07-17T06:38:28.067Z,10.95
2018-07-17T06:40:56.990Z,10.50
2018-07-17T06:43:25.998Z,10.63
2018-07-17T06:45:58.411Z,11.10
2018-07-17T06:48:27.232Z,10.50
2018-07-17T06:50:56.101Z,10.40
2018-07-17T06:53:24.819Z,10.45
2018-07-17T06:55:53.607Z,10.37
2018-07-17T06:58:24.139Z,10.35
2018-07-17T07:00:58.709Z,10.40
2018-07-17T07:03:35.671Z,10.15
2018-07-17T07:06:04.638Z,9.50
2018-07-17T07:08:33.468Z,9.53
2018-07-17T07:11:03.405Z,9.75
2018-07-17T07:13:32.903Z,9.70
2018-07-17T07:16:02.037Z,10.53
2018-07-17T07:18:30.767Z,10.05
2018-07-17T07:21:00.796Z,10.77
2018-07-17T07:23:30.593Z,10.07
2018-07-17T07:25:59.965Z,10.35
2018-07-17T07:28:28.594Z,10.27
2018-07-17T07:31:00.287Z,10.58
2018-07-17T07:33:28.914Z,11.40
2018-07-17T07:35:58.170Z,10.75
2018-07-17T07:38:27.333Z,10.65
2018-07-17T07:40:56.305Z,10.68
2018-07-17T07:43:25.328Z,11.20
2018-07-17T07:45:54.114Z,10.90
2018-07-17T07:48:22.873Z,10.88
2018-07-17T07:50:52.124Z,10.55
2018-07-17T07:53:20.827Z,11.40
2018-07-17T07:55:49.679Z,10.72
2018-07-17T07:58:18.419Z,10.58
2018-07-17T08:00:47.255Z,10.55
2018-07-17T08:03:16.034Z,10.70
2018-07-17T08:05:47.032Z,10.30
2018-07-17T08:08:15.894Z,10.68
2018-07-17T08:10:44.799Z,10.80
2018-07-17T08:13:13.634Z,11.35
2018-07-17T08:15:42.370Z,11.30
2018-07-17T08:18:11.531Z,10.60
2018-07-17T08:20:41.134Z,11.10
2018-07-17T08:23:09.828Z,11.90
2018-07-17T08:25:39.034Z,11.95
2018-07-17T08:28:08.266Z,12.25
2018-07-17T08:30:37.038Z,12.27
2018-07-17T08:33:05.830Z,12.07
2018-07-17T08:35:34.543Z,12.10
2018-07-17T08:38:03.256Z,12.00
2018-07-17T08:40:32.164Z,12.25
2018-07-17T08:43:01.503Z,12.50
2018-07-17T08:45:32.802Z,13.45
2018-07-17T08:48:02.769Z,12.75
2018-07-17T08:50:33.010Z,12.70
2018-07-17T08:53:02.279Z,12.45
2018-07-17T08:55:33.172Z,12.60
2018-07-17T08:58:02.295Z,12.43
2018-07-17T09:00:38.251Z,13.43
2018-07-17T09:03:14.572Z,12.50
2018-07-17T09:05:53.210Z,12.20
2018-07-17T09:08:22.179Z,11.88
2018-07-17T09:10:50.988Z,11.90
2018-07-17T09:13:19.791Z,12.05
2018-07-17T09:15:48.682Z,11.53
2018-07-17T09:18:18.416Z,12.65
2018-07-17T09:20:47.572Z,12.28
2018-07-17T09:23:16.481Z,12.80
2018-07-17T09:25:45.433Z,12.65
2018-07-17T09:28:14.756Z,11.75
2018-07-17T09:30:48.983Z,12.60
2018-07-17T09:33:17.808Z,12.25
2018-07-17T09:35:47.053Z,11.80
2018-07-17T09:38:17.398Z,11.25
2018-07-17T09:40:48.128Z,11.35
2018-07-17T09:43:16.987Z,12.07
2018-07-17T09:45:45.428Z,11.53
2018-07-17T09:48:14.211Z,11.03
2018-07-17T09:50:43.018Z,11.47
2018-07-17T09:53:11.699Z,11.28
2018-07-17T09:55:40.439Z,11.63
2018-07-17T09:58:09.094Z,12.25
2018-07-17T10:00:43.195Z,12.05
2018-07-17T10:03:12.241Z,12.03
2018-07-17T10:05:40.950Z,11.77
2018-07-17T10:08:09.731Z,11.18
2018-07-17T10:10:42.578Z,11.97
2018-07-17T10:13:11.346Z,11.85
2018-07-17T10:15:40.249Z,11.05
2018-07-17T10:18:08.998Z,11.25
2018-07-17T10:20:37.723Z,12.28
2018-07-17T10:23:06.418Z,11.18
2018-07-17T10:25:35.284Z,12.00
2018-07-17T10:28:06.250Z,12.30
2018-07-17T10:30:35.053Z,11.95
2018-07-17T10:33:03.770Z,10.50
2018-07-17T10:35:32.879Z,15.28
2018-07-17T10:38:01.738Z,11.68
2018-07-17T10:40:34.367Z,11.97
2018-07-17T10:43:03.147Z,9.45
2018-07-17T10:45:33.912Z,9.83
2018-07-17T10:48:02.824Z,9.03
2018-07-17T10:50:43.123Z,9.85
2018-07-17T10:53:11.728Z,9.17
2018-07-17T10:55:40.540Z,9.83
2018-07-17T10:58:09.311Z,9.25
2018-07-17T11:00:38.172Z,9.80
2018-07-17T11:03:06.933Z,9.18
2018-07-17T11:05:35.630Z,9.30
2018-07-17T11:08:04.347Z,8.98
2018-07-17T11:10:33.043Z,9.18
2018-07-17T11:13:01.781Z,8.30
2018-07-17T11:15:30.469Z,8.10
2018-07-17T11:17:59.215Z,10.13
2018-07-17T11:20:35.157Z,8.70
2018-07-17T11:23:09.764Z,8.33
2018-07-17T11:25:42.012Z,8.03
2018-07-17T11:28:10.698Z,8.45
2018-07-17T11:30:39.475Z,8.00
2018-07-17T11:33:07.857Z,7.67
2018-07-17T11:35:36.756Z,7.33
2018-07-17T11:38:05.549Z,8.08
2018-07-17T11:40:34.183Z,8.70
2018-07-17T11:43:03.020Z,7.80
2018-07-17T11:45:32.076Z,7.45
2018-07-17T11:48:00.881Z,6.90
2018-07-17T11:50:29.653Z,7.20
2018-07-17T11:52:58.382Z,6.42
2018-07-17T11:55:27.201Z,6.60
2018-07-17T11:57:59.437Z,6.47
2018-07-17T12:00:28.371Z,5.90
2018-07-17T12:02:57.237Z,5.80
2018-07-17T12:05:26.089Z,5.30
2018-07-17T12:07:55.167Z,5.37
2018-07-17T12:10:23.887Z,5.15
2018-07-17T12:12:52.708Z,4.78
2018-07-17T12:15:21.859Z,4.60
2018-07-17T12:17:50.576Z,4.20
2018-07-17T12:20:19.554Z,4.50
2018-07-17T12:22:47.866Z,4.50
2018-07-17T12:25:16.809Z,4.65
2018-07-17T12:27:45.581Z,4.45
2018-07-17T12:30:14.762Z,4.60
2018-07-17T12:32:43.524Z,4.65
2018-07-17T12:35:12.721Z,4.40
2018-07-17T12:37:41.605Z,4.43
2018-07-17T12:40:10.687Z,4.25
2018-07-17T12:42:39.350Z,4.33
2018-07-17T12:45:08.062Z,4.45
2018-07-17T12:47:37.085Z,4.30
2018-07-17T12:50:05.627Z,4.22
2018-07-17T12:52:43.226Z,4.60
2018-07-17T12:55:21.248Z,4.28
2018-07-17T12:57:50.455Z,4.33
2018-07-17T13:00:19.567Z,3.90
2018-07-17T13:02:48.143Z,6.23
2018-07-17T13:05:24.156Z,7.40
2018-07-17T13:07:57.172Z,8.40
2018-07-17T13:10:30.489Z,11.70
2018-07-17T13:12:59.471Z,10.10
2018-07-17T13:15:28.217Z,9.23
2018-07-17T13:17:56.971Z,11.10
2018-07-17T13:20:25.765Z,10.05
2018-07-17T13:23:05.187Z,12.20
2018-07-17T13:25:38.241Z,11.65
2018-07-17T13:28:07.451Z,9.53
2018-07-17T13:30:38.306Z,11.78
2018-07-17T13:33:12.558Z,11.33
2018-07-17T13:35:47.579Z,11.97
2018-07-17T13:38:16.835Z,10.40
2018-07-17T13:40:45.519Z,12.43
2018-07-17T13:43:14.359Z,18.10
2018-07-17T13:45:42.826Z,12.63
2018-07-17T13:48:12.182Z,11.73
2018-07-17T13:50:41.413Z,10.85
2018-07-17T13:53:10.595Z,8.58
2018-07-17T13:55:39.638Z,7.17
2018-07-17T13:58:08.560Z,6.60
2018-07-17T14:00:37.481Z,6.35
2018-07-17T14:03:06.408Z,6.85
2018-07-17T14:05:35.600Z,6.20
2018-07-17T14:08:04.517Z,6.70
2018-07-17T14:10:33.273Z,7.30
2018-07-17T14:13:02.157Z,7.87
2018-07-17T14:15:31.015Z,6.90
2018-07-17T14:18:00.371Z,7.22
2018-07-17T14:20:29.434Z,7.37
2018-07-17T14:22:59.616Z,6.90
2018-07-17T14:25:28.642Z,6.23
2018-07-17T14:27:57.469Z,7.42
2018-07-17T14:30:26.158Z,4.00
2018-07-17T14:32:55.129Z,3.02
2018-07-17T14:35:23.877Z,3.40
2018-07-17T14:37:57.275Z,2.87
2018-07-17T14:40:31.145Z,3.75
2018-07-17T14:43:00.151Z,3.30
2018-07-17T14:45:28.939Z,2.85
2018-07-17T14:47:57.661Z,2.70
2018-07-17T14:50:26.705Z,2.40
2018-07-17T14:52:55.432Z,2.90
2018-07-17T14:55:25.018Z,2.45
2018-07-17T14:57:53.749Z,2.50
2018-07-17T15:00:22.097Z,2.50
2018-07-17T15:02:50.889Z,2.50
2018-07-17T15:05:19.642Z,2.70
2018-07-17T15:07:48.353Z,2.62
2018-07-17T15:10:17.164Z,2.40
2018-07-17T15:12:45.572Z,3.00
2018-07-17T15:15:14.333Z,2.80
2018-07-17T15:17:42.716Z,3.12
2018-07-17T15:20:11.479Z,2.90
2018-07-17T15:22:40.601Z,3.20
2018-07-17T15:25:08.987Z,3.55
2018-07-17T15:27:38.503Z,3.30
2018-07-17T15:30:07.598Z,4.08
2018-07-17T15:32:36.410Z,4.07
2018-07-17T15:35:05.184Z,3.35
2018-07-17T15:37:34.010Z,3.60
2018-07-17T15:40:02.714Z,3.70
2018-07-17T15:42:31.400Z,3.30
2018-07-17T15:45:00.081Z,3.27
2018-07-17T15:47:28.837Z,3.10
2018-07-17T15:49:57.648Z,3.50
2018-07-17T15:52:26.270Z,3.12
2018-07-17T15:54:54.962Z,3.03
2018-07-17T15:57:23.682Z,2.85
2018-07-17T15:59:52.161Z,3.35
2018-07-17T16:02:20.558Z,2.92
2018-07-17T16:04:53.724Z,3.20
2018-07-17T16:07:27.144Z,3.62
2018-07-17T16:09:55.970Z,3.47
2018-07-17T16:12:24.647Z,4.12
2018-07-17T16:14:53.332Z,3.47
2018-07-17T16:17:22.077Z,3.10
2018-07-17T16:19:50.855Z,3.67
2018-07-17T16:22:19.551Z,3.62
2018-07-17T16:24:48.239Z,3.60
2018-07-17T16:27:16.913Z,3.40
2018-07-17T16:29:45.647Z,3.60
2018-07-17T16:32:14.160Z,3.10
2018-07-17T16:34:43.172Z,2.87
2018-07-17T16:37:11.974Z,3.62
2018-07-17T16:39:40.668Z,3.30
2018-07-17T16:42:09.854Z,3.60
2018-07-17T16:44:39.586Z,2.98
2018-07-17T16:47:08.451Z,3.10
2018-07-17T16:49:37.585Z,3.00
2018-07-17T16:52:06.247Z,3.13
2018-07-17T16:54:39.265Z,4.45
2018-07-17T16:57:15.656Z,2.93
2018-07-17T16:59:50.653Z,2.80
2018-07-17T17:02:19.678Z,3.30
2018-07-17T17:04:48.642Z,3.60
2018-07-17T17:07:17.319Z,3.05
2018-07-17T17:09:51.579Z,3.35
2018-07-17T17:12:20.279Z,2.72
2018-07-17T17:14:48.778Z,3.62
2018-07-17T17:17:17.659Z,3.73
2018-07-17T17:19:46.285Z,3.10
2018-07-17T17:22:15.223Z,2.95
2018-07-17T17:24:43.681Z,3.27
2018-07-17T17:27:12.827Z,3.30
2018-07-17T17:29:41.562Z,2.80
2018-07-17T17:32:10.406Z,3.10
2018-07-17T17:34:39.069Z,3.10
2018-07-17T17:37:07.516Z,3.37
2018-07-17T17:39:36.222Z,3.17
2018-07-17T17:42:04.922Z,3.50
2018-07-17T17:44:33.567Z,3.17
2018-07-17T17:47:02.429Z,3.33
2018-07-17T17:49:31.272Z,2.80
2018-07-17T17:52:00.110Z,2.70
2018-07-17T17:54:29.027Z,8.20
2018-07-17T17:56:57.782Z,3.30
2018-07-17T17:59:26.544Z,2.97
2018-07-17T18:01:57.112Z,3.40
2018-07-17T18:04:26.235Z,3.40
2018-07-17T18:06:55.070Z,2.98
2018-07-17T18:09:23.524Z,4.75
2018-07-17T18:11:57.789Z,3.35
2018-07-17T18:14:26.643Z,3.27
2018-07-17T18:16:55.454Z,3.30
2018-07-17T18:19:24.292Z,3.60
2018-07-17T18:21:52.992Z,3.97
2018-07-17T18:24:21.673Z,5.22
2018-07-17T18:26:50.486Z,7.03
2018-07-17T18:29:20.890Z,3.30
2018-07-17T18:31:49.497Z,4.20
2018-07-17T18:34:23.097Z,3.55
2018-07-17T18:36:56.580Z,3.98
2018-07-17T18:39:25.143Z,3.65
2018-07-17T18:41:55.413Z,3.90
2018-07-17T18:44:24.212Z,3.60
2018-07-17T18:46:52.899Z,5.00
2018-07-17T18:49:21.701Z,4.35
2018-07-17T18:51:50.571Z,3.95
2018-07-17T18:54:19.340Z,4.00
2018-07-17T18:56:49.221Z,4.90
2018-07-17T18:59:18.677Z,5.10
2018-07-17T19:01:47.433Z,4.83
2018-07-17T19:04:16.279Z,8.00
2018-07-17T19:06:45.037Z,3.23
2018-07-17T19:09:14.074Z,3.00
2018-07-17T19:11:42.477Z,3.20
2018-07-17T19:14:11.230Z,3.67
2018-07-17T19:16:39.921Z,3.30
2018-07-17T19:19:10.487Z,3.13
2018-07-17T19:21:39.192Z,2.97
2018-07-17T19:24:08.168Z,3.20
2018-07-17T19:26:36.935Z,3.52
2018-07-17T19:29:05.472Z,3.10
2018-07-17T19:31:34.209Z,3.05
2018-07-17T19:34:03.014Z,3.20
2018-07-17T19:36:31.459Z,3.25
2018-07-17T19:39:00.568Z,3.20
2018-07-17T19:41:29.260Z,3.05
2018-07-17T19:43:58.018Z,2.90
2018-07-17T19:46:26.704Z,2.87
2018-07-17T19:48:55.513Z,2.50
2018-07-17T19:51:24.402Z,2.87
2018-07-17T19:53:53.027Z,3.20
2018-07-17T19:56:21.803Z,3.05
2018-07-17T19:58:50.988Z,3.13
2018-07-17T20:01:19.932Z,3.47
2018-07-17T20:03:49.025Z,2.90
2018-07-17T20:06:17.796Z,2.55
2018-07-17T20:08:46.157Z,4.17
2018-07-17T20:11:15.042Z,3.00
2018-07-17T20:13:43.802Z,2.98
2018-07-17T20:16:12.520Z,2.90
2018-07-17T20:18:41.243Z,3.08
2018-07-17T20:21:09.731Z,2.70
2018-07-17T20:23:38.016Z,3.23
2018-07-17T20:26:06.751Z,2.90
2018-07-17T20:28:36.777Z,2.83
2018-07-17T20:31:05.490Z,3.02
2018-07-17T20:33:34.000Z,2.80
2018-07-17T20:36:02.790Z,3.00
2018-07-17T20:38:31.540Z,2.92
2018-07-17T20:41:00.310Z,3.07
2018-07-17T20:43:29.975Z,3.05
2018-07-17T20:45:58.839Z,2.90
2018-07-17T20:48:27.226Z,3.08
2018-07-17T20:50:56.076Z,3.00
2018-07-17T20:53:24.970Z,3.02
2018-07-17T20:55:56.285Z,3.23
2018-07-17T20:58:24.975Z,3.15
2018-07-17T21:00:53.748Z,2.95
2018-07-17T21:03:22.750Z,3.17
2018-07-17T21:05:51.675Z,3.37
2018-07-17T21:08:20.799Z,3.15
2018-07-17T21:10:49.447Z,3.10
2018-07-17T21:13:18.461Z,3.30
2018-07-17T21:15:47.162Z,2.70
2018-07-17T21:18:16.905Z,3.42
2018-07-17T21:20:48.976Z,3.37
2018-07-17T21:23:23.313Z,3.10
2018-07-17T21:25:52.241Z,3.77
2018-07-17T21:28:20.922Z,4.87
2018-07-17T21:30:49.599Z,3.30
2018-07-17T21:33:18.828Z,3.30
2018-07-17T21:35:47.519Z,3.12
2018-07-17T21:38:16.201Z,3.08
2018-07-17T21:40:44.956Z,3.50
2018-07-17T21:43:14.042Z,3.10
2018-07-17T21:45:42.945Z,3.12
2018-07-17T21:48:11.670Z,2.95
2018-07-17T21:50:41.329Z,3.15
2018-07-17T21:53:09.761Z,3.05
2018-07-17T21:55:38.474Z,3.27
2018-07-17T21:58:07.392Z,3.20
2018-07-17T22:00:36.316Z,3.17
2018-07-17T22:03:07.938Z,2.83
2018-07-17T22:05:37.001Z,3.00
2018-07-17T22:08:05.831Z,2.90
2018-07-17T22:10:34.680Z,2.98
2018-07-17T22:13:03.443Z,2.92
2018-07-17T22:15:32.317Z,2.70
2018-07-17T22:18:01.187Z,2.95
2018-07-17T22:20:29.637Z,3.00
2018-07-17T22:22:58.404Z,2.80
2018-07-17T22:25:27.279Z,2.80
2018-07-17T22:27:56.112Z,2.62
2018-07-17T22:30:24.874Z,3.00
2018-07-17T22:32:56.458Z,2.90
2018-07-17T22:35:25.332Z,2.58
2018-07-17T22:37:54.160Z,2.72
2018-07-17T22:40:22.891Z,2.80
2018-07-17T22:42:51.719Z,2.70
2018-07-17T22:45:20.446Z,2.75
2018-07-17T22:47:49.190Z,2.70
2018-07-17T22:50:17.971Z,2.80
2018-07-17T22:52:46.882Z,2.77
2018-07-17T22:55:15.637Z,2.80
2018-07-17T22:57:45.333Z,2.92
2018-07-17T23:00:14.318Z,2.70
2018-07-17T23:02:43.087Z,2.70
2018-07-17T23:05:11.902Z,2.90
2018-07-17T23:07:40.271Z,2.70
2018-07-17T23:10:09.245Z,2.70
2018-07-17T23:12:38.081Z,2.90
2018-07-17T23:15:07.065Z,2.92
2018-07-17T23:17:35.435Z,3.00
2018-07-17T23:20:04.664Z,2.83
2018-07-17T23:22:38.542Z,2.50
2018-07-17T23:25:07.400Z,2.72
2018-07-17T23:27:36.255Z,2.42
2018-07-17T23:30:04.854Z,3.10
2018-07-17T23:32:33.668Z,2.90
2018-07-17T23:35:02.435Z,2.60
2018-07-17T23:37:32.035Z,2.75
2018-07-17T23:40:00.390Z,2.92
2018-07-17T23:42:29.220Z,2.80
2018-07-17T23:44:57.702Z,2.95
2018-07-17T23:47:26.431Z,2.70
2018-07-17T23:49:55.868Z,2.60
2018-07-17T23:52:24.560Z,2.92
2018-07-17T23:54:53.919Z,2.90
2018-07-17T23:57:22.775Z,2.87
2018-07-17T23:59:52.227Z,3.10
